createdAt,value
2023-12-17T00:01:04.877Z,59.28
2023-12-17T00:03:31.638Z,58.64
2023-12-17T00:05:58.354Z,58.26
2023-12-17T00:08:24.968Z,58.52
2023-12-17T00:10:51.548Z,58.81
2023-12-17T00:13:18.230Z,57.84
2023-12-17T00:15:44.820Z,57.94
2023-12-17T00:18:11.595Z,57.38
2023-12-17T00:20:38.401Z,58.35
2023-12-17T00:23:05.050Z,57.78
2023-12-17T00:25:31.660Z,59.61
2023-12-17T00:27:58.302Z,59.34
2023-12-17T00:30:25.017Z,58.86
2023-12-17T00:32:53.328Z,59.04
2023-12-17T00:35:20.149Z,59.28
2023-12-17T00:37:46.736Z,58.85
2023-12-17T00:40:13.366Z,58.62
2023-12-17T00:42:39.969Z,58.52
2023-12-17T00:45:06.560Z,57.57
2023-12-17T00:47:33.229Z,58.21
2023-12-17T00:49:59.804Z,58.73
2023-12-17T00:52:26.390Z,58.36
2023-12-17T00:54:52.979Z,58.17
2023-12-17T00:57:19.657Z,57.24
2023-12-17T00:59:46.299Z,57.41
2023-12-17T01:02:12.907Z,58.45
2023-12-17T01:04:39.536Z,58.85
2023-12-17T01:07:06.126Z,59.36
2023-12-17T01:09:32.720Z,59.45
2023-12-17T01:11:59.357Z,60.19
2023-12-17T01:14:25.996Z,59.55
2023-12-17T01:16:52.714Z,58.46
2023-12-17T01:19:19.487Z,58.20
2023-12-17T01:21:46.167Z,57.59
2023-12-17T01:24:12.922Z,58.35
2023-12-17T01:26:39.698Z,59.36
2023-12-17T01:29:06.309Z,57.94
2023-12-17T01:31:32.869Z,58.00
2023-12-17T01:33:59.574Z,59.62
2023-12-17T01:36:26.236Z,59.77
2023-12-17T01:38:52.929Z,58.78
2023-12-17T01:41:19.537Z,58.29
2023-12-17T01:43:46.126Z,58.50
2023-12-17T01:46:12.756Z,58.66
2023-12-17T01:48:39.572Z,57.65
2023-12-17T01:51:06.243Z,57.92
2023-12-17T01:53:32.835Z,58.40
2023-12-17T01:55:59.447Z,57.69
2023-12-17T01:58:26.171Z,58.60
2023-12-17T02:00:52.805Z,58.20
2023-12-17T02:03:19.688Z,58.46
2023-12-17T02:05:46.501Z,59.24
2023-12-17T02:08:13.080Z,58.42
2023-12-17T02:10:39.653Z,58.03
2023-12-17T02:13:06.226Z,57.36
2023-12-17T02:15:32.839Z,58.21
2023-12-17T02:17:59.568Z,58.10
2023-12-17T02:20:26.181Z,57.88
2023-12-17T02:22:52.753Z,58.57
2023-12-17T02:25:19.354Z,57.89
2023-12-17T02:27:45.934Z,58.15
2023-12-17T02:30:12.596Z,57.09
2023-12-17T02:32:39.268Z,56.66
2023-12-17T02:35:05.889Z,55.71
2023-12-17T02:37:32.507Z,57.53
2023-12-17T02:39:59.080Z,56.56
2023-12-17T02:42:25.689Z,56.90
2023-12-17T02:44:52.349Z,56.58
2023-12-17T02:47:18.946Z,56.42
2023-12-17T02:49:45.599Z,55.87
2023-12-17T02:52:12.244Z,56.90
2023-12-17T02:54:38.811Z,56.53
2023-12-17T02:57:05.695Z,56.45
2023-12-17T02:59:32.287Z,58.11
2023-12-17T03:01:58.908Z,57.03
2023-12-17T03:04:25.495Z,57.05
2023-12-17T03:06:52.093Z,56.24
2023-12-17T03:09:18.776Z,55.92
2023-12-17T03:11:45.464Z,56.72
2023-12-17T03:14:12.091Z,55.63
2023-12-17T03:16:38.893Z,56.63
2023-12-17T03:19:05.597Z,57.33
2023-12-17T03:21:32.285Z,57.89
2023-12-17T03:23:58.972Z,57.95
2023-12-17T03:26:25.614Z,57.24
2023-12-17T03:28:52.368Z,57.53
2023-12-17T03:31:19.052Z,56.95
2023-12-17T03:33:45.923Z,56.74
2023-12-17T03:36:12.671Z,55.45
2023-12-17T03:38:39.282Z,56.07
2023-12-17T03:41:05.867Z,57.29
2023-12-17T03:43:32.449Z,57.15
2023-12-17T03:45:59.019Z,58.28
2023-12-17T03:48:25.745Z,58.71
2023-12-17T03:50:52.435Z,57.69
2023-12-17T03:53:19.082Z,58.91
2023-12-17T03:55:45.697Z,59.49
2023-12-17T03:58:12.321Z,58.05
2023-12-17T04:00:38.954Z,58.69
2023-12-17T04:03:05.606Z,59.33
2023-12-17T04:05:32.303Z,58.35
2023-12-17T04:07:58.937Z,58.31
2023-12-17T04:10:25.531Z,57.33
2023-12-17T04:12:52.130Z,57.80
2023-12-17T04:15:18.813Z,56.81
2023-12-17T04:17:45.648Z,57.02
2023-12-17T04:20:12.270Z,58.17
2023-12-17T04:22:38.839Z,57.51
2023-12-17T04:25:05.424Z,56.53
2023-12-17T04:27:32.066Z,56.61
2023-12-17T04:29:58.648Z,57.49
2023-12-17T04:32:25.397Z,58.53
2023-12-17T04:34:52.058Z,56.88
2023-12-17T04:37:18.653Z,56.68
2023-12-17T04:39:45.244Z,56.67
2023-12-17T04:42:11.836Z,57.35
2023-12-17T04:44:38.442Z,56.83
2023-12-17T04:47:05.057Z,57.29
2023-12-17T04:49:31.736Z,56.62
2023-12-17T04:51:58.496Z,57.36
2023-12-17T04:54:25.289Z,57.08
2023-12-17T04:56:51.942Z,56.71
2023-12-17T04:59:18.673Z,57.63
2023-12-17T05:01:45.250Z,56.27
2023-12-17T05:04:12.030Z,55.90
2023-12-17T05:06:38.683Z,56.82
2023-12-17T05:09:05.240Z,57.02
2023-12-17T05:11:31.689Z,56.04
2023-12-17T05:13:58.180Z,56.29
2023-12-17T05:16:24.613Z,56.42
2023-12-17T05:18:51.355Z,56.69
2023-12-17T05:21:18.420Z,57.13
2023-12-17T05:23:45.478Z,56.42
2023-12-17T05:26:11.936Z,56.41
2023-12-17T05:28:38.363Z,55.48
2023-12-17T05:31:04.891Z,56.69
2023-12-17T05:33:31.510Z,57.44
2023-12-17T05:35:58.048Z,57.89
2023-12-17T05:38:24.520Z,59.12
2023-12-17T05:40:50.975Z,57.88
2023-12-17T05:43:17.421Z,57.23
2023-12-17T05:45:50.905Z,57.09
2023-12-17T05:48:24.927Z,57.75
2023-12-17T05:50:51.578Z,57.94
2023-12-17T05:53:18.260Z,56.35
2023-12-17T05:55:46.388Z,57.19
2023-12-17T05:58:12.821Z,57.50
2023-12-17T06:00:39.283Z,57.98
2023-12-17T06:03:05.854Z,58.14
2023-12-17T06:05:32.371Z,57.23
2023-12-17T06:07:59.046Z,56.76
2023-12-17T06:10:25.677Z,57.02
2023-12-17T06:12:52.389Z,56.97
2023-12-17T06:15:19.012Z,57.32
2023-12-17T06:17:45.681Z,58.37
2023-12-17T06:20:12.333Z,57.05
2023-12-17T06:22:39.257Z,57.24
2023-12-17T06:25:05.863Z,56.59
2023-12-17T06:27:32.667Z,57.15
2023-12-17T06:29:59.384Z,57.09
2023-12-17T06:32:26.011Z,57.28
2023-12-17T06:34:52.694Z,58.36
2023-12-17T06:37:19.302Z,57.70
2023-12-17T06:39:45.887Z,57.18
2023-12-17T06:42:12.536Z,56.56
2023-12-17T06:44:39.167Z,56.70
2023-12-17T06:47:14.203Z,57.16
2023-12-17T06:49:49.133Z,56.79
2023-12-17T06:52:15.801Z,57.21
2023-12-17T06:54:42.441Z,57.21
2023-12-17T06:57:09.049Z,57.03
2023-12-17T06:59:35.651Z,56.61
2023-12-17T07:02:02.292Z,56.50
2023-12-17T07:04:29.019Z,56.68
2023-12-17T07:06:55.616Z,57.69
2023-12-17T07:09:22.300Z,57.43
2023-12-17T07:11:48.983Z,57.82
2023-12-17T07:14:15.666Z,58.30
2023-12-17T07:16:42.252Z,57.04
2023-12-17T07:19:08.985Z,57.10
2023-12-17T07:21:35.667Z,57.95
2023-12-17T07:24:02.345Z,56.97
2023-12-17T07:26:28.971Z,56.71
2023-12-17T07:28:55.582Z,57.65
2023-12-17T07:31:22.357Z,56.73
2023-12-17T07:33:49.135Z,56.47
2023-12-17T07:36:15.829Z,56.84
2023-12-17T07:38:42.420Z,58.07
2023-12-17T07:41:09.024Z,57.95
2023-12-17T07:43:35.618Z,57.14
2023-12-17T07:46:02.215Z,58.57
2023-12-17T07:48:28.907Z,57.74
2023-12-17T07:50:55.809Z,57.79
2023-12-17T07:53:22.492Z,56.96
2023-12-17T07:55:49.094Z,57.29
2023-12-17T07:58:15.703Z,58.08
2023-12-17T08:00:42.378Z,57.33
2023-12-17T08:03:09.078Z,57.81
2023-12-17T08:05:35.886Z,58.21
2023-12-17T08:08:02.518Z,56.91
2023-12-17T08:10:29.185Z,56.56
2023-12-17T08:12:55.802Z,56.99
2023-12-17T08:15:22.461Z,57.46
2023-12-17T08:17:49.164Z,57.72
2023-12-17T08:20:15.872Z,57.35
2023-12-17T08:22:42.480Z,56.63
2023-12-17T08:25:09.104Z,56.81
2023-12-17T08:27:35.708Z,57.84
2023-12-17T08:30:02.337Z,57.36
2023-12-17T08:32:28.975Z,56.07
2023-12-17T08:34:55.598Z,58.09
2023-12-17T08:37:22.260Z,58.63
2023-12-17T08:39:48.935Z,57.40
2023-12-17T08:42:15.602Z,56.15
2023-12-17T08:44:43.140Z,56.45
2023-12-17T08:47:09.757Z,57.09
2023-12-17T08:49:36.476Z,56.42
2023-12-17T08:52:03.117Z,55.99
2023-12-17T08:54:29.737Z,56.44
2023-12-17T08:56:56.425Z,56.39
2023-12-17T08:59:23.060Z,56.34
2023-12-17T09:01:49.665Z,56.87
2023-12-17T09:04:16.335Z,57.30
2023-12-17T09:06:42.910Z,56.86
2023-12-17T09:09:09.598Z,57.93
2023-12-17T09:11:36.186Z,56.90
2023-12-17T09:14:02.773Z,55.93
2023-12-17T09:16:29.354Z,56.40
2023-12-17T09:18:56.018Z,57.33
2023-12-17T09:21:22.688Z,57.71
2023-12-17T09:23:49.327Z,57.34
2023-12-17T09:26:15.960Z,56.13
2023-12-17T09:28:42.732Z,56.42
2023-12-17T09:31:09.367Z,55.71
2023-12-17T09:33:36.240Z,56.55
2023-12-17T09:36:02.940Z,56.24
2023-12-17T09:38:29.553Z,54.89
2023-12-17T09:40:56.164Z,55.48
2023-12-17T09:43:22.816Z,55.51
2023-12-17T09:45:49.419Z,56.61
2023-12-17T09:48:16.302Z,56.08
2023-12-17T09:50:42.936Z,56.32
2023-12-17T09:53:09.525Z,57.15
2023-12-17T09:55:36.180Z,56.83
2023-12-17T09:58:02.843Z,55.69
2023-12-17T10:00:29.614Z,56.13
2023-12-17T10:02:56.479Z,56.34
2023-12-17T10:05:23.152Z,56.76
2023-12-17T10:07:49.772Z,56.22
2023-12-17T10:10:16.378Z,56.26
2023-12-17T10:12:44.711Z,56.41
2023-12-17T10:15:12.448Z,57.11
2023-12-17T10:17:39.261Z,56.79
2023-12-17T10:20:08.595Z,56.62
2023-12-17T10:22:35.223Z,57.44
2023-12-17T10:25:01.917Z,57.36
2023-12-17T10:27:28.719Z,56.58
2023-12-17T10:29:55.375Z,56.31
2023-12-17T10:32:21.885Z,56.56
2023-12-17T10:34:48.512Z,56.76
2023-12-17T10:37:15.187Z,58.89
2023-12-17T10:39:41.620Z,55.29
2023-12-17T10:42:08.131Z,56.26
2023-12-17T10:44:34.598Z,57.48
2023-12-17T10:47:01.062Z,55.90
2023-12-17T10:49:27.601Z,57.70
2023-12-17T10:51:54.100Z,58.00
2023-12-17T10:54:20.583Z,56.37
2023-12-17T10:56:47.072Z,55.86
2023-12-17T10:59:15.685Z,56.14
2023-12-17T11:01:46.411Z,55.76
2023-12-17T11:04:12.976Z,56.81
2023-12-17T11:06:39.464Z,56.76
2023-12-17T11:09:05.949Z,56.90
2023-12-17T11:11:32.454Z,55.78
2023-12-17T11:13:59.056Z,56.46
2023-12-17T11:16:25.772Z,57.14
2023-12-17T11:18:52.389Z,56.64
2023-12-17T11:21:18.969Z,56.83
2023-12-17T11:23:45.461Z,57.18
2023-12-17T11:26:11.988Z,57.67
2023-12-17T11:28:38.590Z,57.93
2023-12-17T11:31:05.227Z,58.17
2023-12-17T11:33:32.012Z,58.71
2023-12-17T11:35:58.742Z,57.42
2023-12-17T11:38:25.555Z,56.79
2023-12-17T11:40:52.189Z,56.66
2023-12-17T11:43:18.854Z,59.90
2023-12-17T11:45:46.050Z,57.31
2023-12-17T11:48:13.085Z,58.09
2023-12-17T11:50:39.706Z,57.06
2023-12-17T11:53:06.335Z,58.10
2023-12-17T11:55:33.579Z,57.34
2023-12-17T11:58:00.193Z,56.60
2023-12-17T12:00:26.812Z,57.33
2023-12-17T12:02:53.493Z,58.04
2023-12-17T12:05:20.354Z,57.72
2023-12-17T12:07:47.088Z,56.49
2023-12-17T12:10:13.799Z,56.95
2023-12-17T12:12:40.501Z,57.11
2023-12-17T12:15:07.210Z,58.00
2023-12-17T12:17:33.995Z,58.02
2023-12-17T12:20:00.997Z,57.94
2023-12-17T12:22:27.933Z,58.15
2023-12-17T12:24:54.539Z,57.06
2023-12-17T12:27:21.152Z,57.18
2023-12-17T12:29:47.767Z,57.02
2023-12-17T12:32:14.370Z,58.31
2023-12-17T12:34:42.175Z,57.89
2023-12-17T12:37:08.767Z,55.88
2023-12-17T12:39:45.147Z,58.19
2023-12-17T12:42:21.622Z,57.72
2023-12-17T12:44:48.289Z,58.19
2023-12-17T12:47:14.871Z,57.38
2023-12-17T12:49:41.602Z,57.64
2023-12-17T12:52:08.302Z,57.80
2023-12-17T12:54:35.012Z,57.33
2023-12-17T12:57:01.748Z,57.10
2023-12-17T12:59:28.371Z,58.89
2023-12-17T13:01:54.959Z,57.12
2023-12-17T13:04:21.579Z,57.01
2023-12-17T13:06:48.214Z,56.86
2023-12-17T13:09:15.931Z,56.76
2023-12-17T13:11:43.648Z,56.66
2023-12-17T13:14:10.234Z,56.66
2023-12-17T13:16:36.836Z,56.35
2023-12-17T13:19:08.609Z,56.75
2023-12-17T13:21:41.062Z,55.99
2023-12-17T13:24:07.753Z,57.26
2023-12-17T13:26:34.457Z,56.69
2023-12-17T13:29:01.053Z,56.33
2023-12-17T13:31:27.686Z,56.66
2023-12-17T13:33:54.430Z,57.19
2023-12-17T13:36:21.093Z,56.08
2023-12-17T13:38:47.676Z,56.79
2023-12-17T13:41:14.306Z,56.29
2023-12-17T13:43:40.905Z,55.77
2023-12-17T13:46:07.507Z,56.89
2023-12-17T13:48:34.801Z,55.73
2023-12-17T13:51:01.635Z,56.88
2023-12-17T13:53:28.285Z,56.54
2023-12-17T13:55:54.851Z,56.36
2023-12-17T13:58:21.450Z,56.02
2023-12-17T14:00:48.154Z,56.40
2023-12-17T14:03:14.968Z,55.89
2023-12-17T14:05:41.659Z,56.98
2023-12-17T14:08:08.237Z,56.84
2023-12-17T14:10:34.802Z,56.14
2023-12-17T14:13:01.419Z,56.68
2023-12-17T14:15:28.136Z,57.29
2023-12-17T14:17:54.930Z,57.29
2023-12-17T14:20:25.508Z,56.55
2023-12-17T14:22:52.793Z,56.72
2023-12-17T14:25:19.406Z,57.27
2023-12-17T14:27:46.217Z,57.28
2023-12-17T14:30:13.118Z,57.29
2023-12-17T14:32:39.774Z,59.55
2023-12-17T14:35:06.422Z,58.29
2023-12-17T14:37:33.067Z,58.38
2023-12-17T14:39:59.685Z,58.61
2023-12-17T14:42:26.374Z,58.89
2023-12-17T14:44:53.245Z,57.99
2023-12-17T14:47:19.839Z,57.79
2023-12-17T14:49:46.509Z,58.25
2023-12-17T14:52:13.146Z,57.08
2023-12-17T14:54:39.809Z,57.93
2023-12-17T14:57:06.651Z,58.70
2023-12-17T14:59:33.577Z,56.94
2023-12-17T15:02:00.268Z,57.60
2023-12-17T15:04:26.896Z,57.40
2023-12-17T15:06:53.547Z,57.73
2023-12-17T15:09:20.217Z,58.00
2023-12-17T15:11:46.857Z,58.47
2023-12-17T15:14:13.473Z,58.22
2023-12-17T15:16:40.093Z,57.69
2023-12-17T15:19:06.738Z,57.48
2023-12-17T15:21:33.369Z,58.11
2023-12-17T15:24:00.088Z,57.36
2023-12-17T15:26:26.831Z,58.32
2023-12-17T15:28:53.420Z,59.07
2023-12-17T15:31:20.030Z,59.17
2023-12-17T15:33:46.851Z,58.59
2023-12-17T15:36:13.649Z,58.46
2023-12-17T15:38:41.350Z,59.71
2023-12-17T15:41:07.977Z,58.90
2023-12-17T15:43:34.635Z,58.99
2023-12-17T15:46:01.246Z,58.63
2023-12-17T15:48:27.934Z,58.65
2023-12-17T15:50:54.657Z,59.61
2023-12-17T15:53:21.222Z,59.39
2023-12-17T15:55:47.827Z,58.21
2023-12-17T15:58:14.396Z,57.77
2023-12-17T16:00:41.221Z,58.83
2023-12-17T16:03:07.978Z,59.07
2023-12-17T16:05:34.582Z,60.33
2023-12-17T16:08:01.183Z,58.02
2023-12-17T16:10:27.784Z,58.68
2023-12-17T16:12:54.381Z,58.18
2023-12-17T16:15:21.106Z,56.93
2023-12-17T16:17:47.803Z,58.25
2023-12-17T16:20:14.647Z,57.97
2023-12-17T16:22:41.509Z,57.29
2023-12-17T16:25:08.254Z,56.12
2023-12-17T16:27:34.913Z,57.98
2023-12-17T16:30:01.505Z,59.30
2023-12-17T16:32:30.397Z,58.33
2023-12-17T16:34:57.993Z,57.88
2023-12-17T16:37:24.553Z,58.42
2023-12-17T16:39:51.141Z,58.97
2023-12-17T16:42:17.776Z,58.93
2023-12-17T16:44:45.024Z,57.94
2023-12-17T16:47:11.717Z,58.11
2023-12-17T16:49:38.585Z,57.82
2023-12-17T16:52:05.268Z,57.88
2023-12-17T16:54:31.862Z,58.17
2023-12-17T16:56:58.484Z,57.86
2023-12-17T16:59:25.126Z,59.27
2023-12-17T17:01:51.736Z,59.20
2023-12-17T17:04:18.329Z,59.59
2023-12-17T17:06:45.072Z,58.43
2023-12-17T17:09:11.701Z,58.17
2023-12-17T17:11:38.312Z,59.17
2023-12-17T17:14:04.905Z,58.80
2023-12-17T17:16:31.511Z,58.25
2023-12-17T17:18:58.161Z,59.20
2023-12-17T17:21:25.324Z,58.36
2023-12-17T17:23:51.943Z,59.29
2023-12-17T17:26:18.545Z,57.66
2023-12-17T17:28:45.165Z,57.87
2023-12-17T17:31:11.762Z,58.25
2023-12-17T17:33:38.537Z,59.14
2023-12-17T17:36:05.242Z,58.83
2023-12-17T17:38:31.835Z,58.25
2023-12-17T17:40:58.464Z,58.56
2023-12-17T17:43:25.085Z,58.13
2023-12-17T17:45:51.699Z,59.26
2023-12-17T17:48:18.394Z,57.65
2023-12-17T17:50:45.085Z,57.43
2023-12-17T17:53:11.674Z,57.54
2023-12-17T17:55:38.244Z,57.31
2023-12-17T17:58:04.843Z,57.48
2023-12-17T18:00:31.460Z,58.51
2023-12-17T18:02:58.125Z,59.85
2023-12-17T18:05:24.773Z,60.01
2023-12-17T18:07:51.375Z,59.35
2023-12-17T18:10:18.017Z,59.30
2023-12-17T18:12:44.810Z,59.03
2023-12-17T18:15:11.628Z,59.18
2023-12-17T18:17:38.217Z,60.12
2023-12-17T18:20:04.855Z,58.86
2023-12-17T18:22:31.424Z,59.29
2023-12-17T18:24:58.021Z,58.63
2023-12-17T18:27:24.600Z,60.01
2023-12-17T18:29:51.349Z,58.98
2023-12-17T18:32:17.979Z,59.68
2023-12-17T18:34:44.577Z,59.08
2023-12-17T18:37:11.203Z,57.97
2023-12-17T18:39:37.858Z,57.87
2023-12-17T18:42:04.526Z,59.52
2023-12-17T18:44:31.167Z,59.29
2023-12-17T18:46:57.605Z,60.24
2023-12-17T18:49:24.574Z,59.59
2023-12-17T18:51:51.243Z,60.25
2023-12-17T18:54:17.692Z,60.82
2023-12-17T18:56:44.171Z,60.07
2023-12-17T18:59:10.665Z,59.87
2023-12-17T19:01:37.195Z,59.94
2023-12-17T19:04:03.879Z,61.66
2023-12-17T19:06:30.453Z,59.89
2023-12-17T19:08:56.930Z,60.61
2023-12-17T19:11:23.364Z,59.16
2023-12-17T19:13:49.843Z,59.23
2023-12-17T19:16:16.288Z,58.80
2023-12-17T19:18:42.822Z,60.34
2023-12-17T19:21:09.310Z,63.42
2023-12-17T19:23:35.817Z,63.93
2023-12-17T19:26:02.239Z,60.03
2023-12-17T19:28:28.677Z,59.70
2023-12-17T19:30:55.400Z,59.29
2023-12-17T19:33:21.970Z,60.85
2023-12-17T19:35:48.449Z,60.07
2023-12-17T19:38:14.933Z,60.16
2023-12-17T19:40:41.395Z,61.50
2023-12-17T19:43:07.864Z,60.90
2023-12-17T19:45:34.510Z,61.00
2023-12-17T19:48:01.185Z,60.53
2023-12-17T19:50:27.842Z,60.64
2023-12-17T19:52:54.449Z,61.92
2023-12-17T19:55:21.097Z,59.61
2023-12-17T19:57:47.691Z,59.20
2023-12-17T20:00:14.330Z,60.70
2023-12-17T20:02:41.392Z,60.81
2023-12-17T20:05:08.411Z,60.21
2023-12-17T20:07:35.305Z,59.92
2023-12-17T20:10:02.135Z,60.70
2023-12-17T20:12:28.847Z,60.68
2023-12-17T20:14:55.568Z,61.24
2023-12-17T20:17:22.187Z,60.98
2023-12-17T20:19:48.878Z,61.99
2023-12-17T20:22:15.690Z,62.09
2023-12-17T20:24:42.323Z,61.91
2023-12-17T20:27:08.975Z,60.32
2023-12-17T20:29:35.581Z,61.18
2023-12-17T20:32:02.234Z,61.62
2023-12-17T20:34:28.870Z,60.92
2023-12-17T20:36:55.522Z,61.88
2023-12-17T20:39:22.123Z,62.99
2023-12-17T20:41:48.726Z,61.87
2023-12-17T20:44:15.303Z,62.13
2023-12-17T20:46:42.027Z,62.98
2023-12-17T20:49:08.678Z,64.57
2023-12-17T20:51:35.517Z,61.80
2023-12-17T20:54:02.175Z,62.11
2023-12-17T20:56:28.792Z,61.89
2023-12-17T20:58:55.367Z,61.69
2023-12-17T21:01:21.967Z,62.16
2023-12-17T21:03:48.751Z,62.42
2023-12-17T21:06:15.931Z,62.66
2023-12-17T21:08:42.559Z,61.70
2023-12-17T21:11:09.134Z,61.83
2023-12-17T21:13:35.726Z,62.43
2023-12-17T21:16:02.356Z,62.59
2023-12-17T21:18:29.229Z,63.32
2023-12-17T21:20:55.945Z,63.22
2023-12-17T21:23:22.556Z,63.09
2023-12-17T21:25:49.147Z,63.63
2023-12-17T21:28:15.841Z,61.15
2023-12-17T21:30:42.562Z,60.67
2023-12-17T21:33:09.491Z,62.04
2023-12-17T21:35:36.209Z,59.91
2023-12-17T21:38:02.862Z,60.80
2023-12-17T21:40:29.443Z,62.14
2023-12-17T21:42:56.069Z,62.05
2023-12-17T21:45:22.663Z,63.50
2023-12-17T21:47:49.346Z,62.59
2023-12-17T21:50:15.955Z,61.10
2023-12-17T21:52:42.567Z,61.11
2023-12-17T21:55:09.161Z,60.51
2023-12-17T21:57:41.482Z,61.23
2023-12-17T22:00:10.473Z,61.24
2023-12-17T22:02:37.425Z,61.07
2023-12-17T22:05:04.015Z,61.63
2023-12-17T22:07:30.720Z,61.11
2023-12-17T22:09:57.484Z,62.09
2023-12-17T22:12:24.274Z,61.48
2023-12-17T22:14:50.898Z,62.69
2023-12-17T22:17:17.506Z,63.17
2023-12-17T22:19:44.280Z,63.49
2023-12-17T22:22:10.938Z,63.12
2023-12-17T22:24:37.601Z,63.18
2023-12-17T22:27:04.282Z,64.27
2023-12-17T22:29:30.986Z,65.02
2023-12-17T22:31:57.766Z,65.91
2023-12-17T22:34:24.667Z,65.32
2023-12-17T22:36:51.374Z,65.82
2023-12-17T22:39:18.014Z,66.12
2023-12-17T22:41:44.605Z,64.93
2023-12-17T22:44:11.346Z,64.30
2023-12-17T22:46:37.932Z,65.53
2023-12-17T22:49:04.680Z,65.33
2023-12-17T22:51:31.330Z,65.14
2023-12-17T22:53:57.942Z,65.91
2023-12-17T22:56:24.651Z,64.64
2023-12-17T22:58:51.261Z,64.50
2023-12-17T23:01:19.016Z,64.11
2023-12-17T23:03:47.051Z,63.36
2023-12-17T23:06:13.732Z,63.92
2023-12-17T23:08:40.394Z,65.02
2023-12-17T23:11:07.002Z,64.51
2023-12-17T23:13:33.638Z,65.01
2023-12-17T23:16:00.225Z,65.69
2023-12-17T23:18:26.937Z,63.57
2023-12-17T23:20:53.610Z,65.62
2023-12-17T23:23:20.204Z,65.97
2023-12-17T23:25:46.790Z,66.19
2023-12-17T23:28:13.398Z,67.42
2023-12-17T23:30:40.117Z,66.61
2023-12-17T23:33:06.890Z,67.68
2023-12-17T23:35:33.583Z,68.15
2023-12-17T23:38:00.210Z,67.83
2023-12-17T23:40:26.854Z,67.31
2023-12-17T23:42:53.486Z,68.52
2023-12-17T23:45:20.098Z,66.97
2023-12-17T23:47:46.998Z,66.62
2023-12-17T23:50:13.633Z,68.01
2023-12-17T23:52:40.213Z,67.60
2023-12-17T23:55:06.801Z,66.00
2023-12-17T23:57:33.461Z,65.52
